Terminal Aerodrome Forecast
Issued by NWS Cleveland, OH

Home | Current Version | Previous Version | Text Only | Print | Product List | Glossary Off
Versions: 1 2 3 4 5 6 7 8 9 10 11 12 13

000
FTUS41 KCLE 170543
TAFCAK
TAF
KCAK 170543Z 1706/1806 24006KT P6SM -SN BKN018
     FM170700 24005KT P6SM SCT020
      TEMPO 1707/1710 BKN018
     FM171000 23005KT P6SM OVC012
     FM171700 24010KT P6SM BKN025
     FM180000 23010KT P6SM SCT030 BKN150=

USA.gov is the U.S. government's official web portal to all federal, state and local government web resources and services.